sensor_id;sensor_type;location;lat;lon;timestamp;pressure;altitude;pressure_sealevel;temperature
70969;BMP280;58630;43.022;25.100;2023-03-24T00:00:16;;;;15.80
70969;BMP280;58630;43.022;25.100;2023-03-24T00:02:42;;;;15.80
70969;BMP280;58630;43.022;25.100;2023-03-24T00:05:09;;;;15.80
70969;BMP280;58630;43.022;25.100;2023-03-24T00:07:35;;;;15.80
70969;BMP280;58630;43.022;25.100;2023-03-24T00:10:03;;;;15.80
70969;BMP280;58630;43.022;25.100;2023-03-24T00:12:31;;;;15.70
70969;BMP280;58630;43.022;25.100;2023-03-24T00:14:57;;;;15.70
70969;BMP280;58630;43.022;25.100;2023-03-24T00:17:26;;;;15.70
70969;BMP280;58630;43.022;25.100;2023-03-24T00:19:53;;;;15.70
70969;BMP280;58630;43.022;25.100;2023-03-24T00:22:20;;;;15.60
70969;BMP280;58630;43.022;25.100;2023-03-24T00:24:46;;;;15.60
70969;BMP280;58630;43.022;25.100;2023-03-24T00:27:12;;;;15.60
70969;BMP280;58630;43.022;25.100;2023-03-24T00:29:38;;;;15.60
70969;BMP280;58630;43.022;25.100;2023-03-24T00:32:04;;;;15.60
70969;BMP280;58630;43.022;25.100;2023-03-24T00:34:30;;;;15.50
70969;BMP280;58630;43.022;25.100;2023-03-24T00:36:56;;;;15.50
70969;BMP280;58630;43.022;25.100;2023-03-24T00:39:21;;;;15.50
70969;BMP280;58630;43.022;25.100;2023-03-24T00:41:47;;;;15.50
70969;BMP280;58630;43.022;25.100;2023-03-24T00:44:14;;;;15.40
70969;BMP280;58630;43.022;25.100;2023-03-24T00:46:47;;;;15.40
70969;BMP280;58630;43.022;25.100;2023-03-24T00:49:20;;;;15.40
70969;BMP280;58630;43.022;25.100;2023-03-24T00:52:24;;;;15.40
70969;BMP280;58630;43.022;25.100;2023-03-24T00:54:51;;;;15.40
70969;BMP280;58630;43.022;25.100;2023-03-24T00:57:19;;;;15.30
70969;BMP280;58630;43.022;25.100;2023-03-24T00:59:48;;;;15.30
70969;BMP280;58630;43.022;25.100;2023-03-24T01:02:15;;;;15.30
70969;BMP280;58630;43.022;25.100;2023-03-24T01:04:40;;;;15.30
70969;BMP280;58630;43.022;25.100;2023-03-24T01:07:12;;;;15.20
70969;BMP280;58630;43.022;25.100;2023-03-24T01:09:37;;;;15.20
70969;BMP280;58630;43.022;25.100;2023-03-24T01:12:03;;;;15.20
70969;BMP280;58630;43.022;25.100;2023-03-24T01:14:29;;;;15.20
70969;BMP280;58630;43.022;25.100;2023-03-24T01:16:55;;;;15.20
70969;BMP280;58630;43.022;25.100;2023-03-24T01:19:21;;;;15.10
70969;BMP280;58630;43.022;25.100;2023-03-24T01:21:47;;;;15.10
70969;BMP280;58630;43.022;25.100;2023-03-24T01:24:15;;;;15.10
70969;BMP280;58630;43.022;25.100;2023-03-24T01:26:41;;;;15.10
70969;BMP280;58630;43.022;25.100;2023-03-24T01:29:06;;;;15.10
70969;BMP280;58630;43.022;25.100;2023-03-24T01:31:32;;;;15.00
70969;BMP280;58630;43.022;25.100;2023-03-24T01:33:57;;;;15.00
70969;BMP280;58630;43.022;25.100;2023-03-24T01:36:23;;;;15.00
70969;BMP280;58630;43.022;25.100;2023-03-24T01:38:50;;;;15.00
70969;BMP280;58630;43.022;25.100;2023-03-24T01:41:15;;;;14.90
70969;BMP280;58630;43.022;25.100;2023-03-24T01:43:41;;;;14.90
70969;BMP280;58630;43.022;25.100;2023-03-24T01:46:17;;;;14.90
70969;BMP280;58630;43.022;25.100;2023-03-24T01:51:28;;;;14.90
70969;BMP280;58630;43.022;25.100;2023-03-24T01:56:41;;;;14.80
70969;BMP280;58630;43.022;25.100;2023-03-24T01:59:12;;;;14.80
70969;BMP280;58630;43.022;25.100;2023-03-24T02:01:38;;;;14.80
70969;BMP280;58630;43.022;25.100;2023-03-24T02:04:05;;;;14.70
70969;BMP280;58630;43.022;25.100;2023-03-24T02:06:31;;;;14.70
70969;BMP280;58630;43.022;25.100;2023-03-24T02:08:58;;;;14.70
70969;BMP280;58630;43.022;25.100;2023-03-24T02:11:24;;;;14.70
70969;BMP280;58630;43.022;25.100;2023-03-24T02:13:51;;;;14.70
70969;BMP280;58630;43.022;25.100;2023-03-24T02:31:51;;;;14.50
70969;BMP280;58630;43.022;25.100;2023-03-24T02:44:40;;;;14.50
70969;BMP280;58630;43.022;25.100;2023-03-24T02:54:41;;;;14.50
70969;BMP280;58630;43.022;25.100;2023-03-24T02:57:14;;;;14.40
70969;BMP280;58630;43.022;25.100;2023-03-24T02:59:43;;;;14.40
70969;BMP280;58630;43.022;25.100;2023-03-24T03:02:16;;;;14.40
70969;BMP280;58630;43.022;25.100;2023-03-24T03:04:49;;;;14.40
70969;BMP280;58630;43.022;25.100;2023-03-24T03:07:20;;;;14.40
70969;BMP280;58630;43.022;25.100;2023-03-24T03:09:51;;;;14.30
70969;BMP280;58630;43.022;25.100;2023-03-24T03:12:18;;;;14.30
70969;BMP280;58630;43.022;25.100;2023-03-24T03:14:48;;;;14.30
70969;BMP280;58630;43.022;25.100;2023-03-24T03:17:17;;;;14.30
70969;BMP280;58630;43.022;25.100;2023-03-24T03:19:44;;;;14.30
70969;BMP280;58630;43.022;25.100;2023-03-24T03:22:14;;;;14.30
70969;BMP280;58630;43.022;25.100;2023-03-24T03:24:41;;;;14.20
70969;BMP280;58630;43.022;25.100;2023-03-24T03:27:13;;;;14.20
70969;BMP280;58630;43.022;25.100;2023-03-24T03:29:42;;;;14.20
70969;BMP280;58630;43.022;25.100;2023-03-24T03:32:10;;;;14.20
70969;BMP280;58630;43.022;25.100;2023-03-24T03:34:49;;;;14.20
70969;BMP280;58630;43.022;25.100;2023-03-24T03:40:04;;;;14.10
70969;BMP280;58630;43.022;25.100;2023-03-24T03:42:34;;;;14.10
70969;BMP280;58630;43.022;25.100;2023-03-24T03:45:00;;;;14.10
70969;BMP280;58630;43.022;25.100;2023-03-24T03:47:25;;;;14.10
70969;BMP280;58630;43.022;25.100;2023-03-24T03:49:51;;;;14.10
70969;BMP280;58630;43.022;25.100;2023-03-24T03:52:17;;;;14.10
70969;BMP280;58630;43.022;25.100;2023-03-24T03:54:43;;;;14.00
70969;BMP280;58630;43.022;25.100;2023-03-24T03:57:09;;;;14.00
70969;BMP280;58630;43.022;25.100;2023-03-24T03:59:37;;;;14.00
70969;BMP280;58630;43.022;25.100;2023-03-24T04:07:19;;;;13.90
70969;BMP280;58630;43.022;25.100;2023-03-24T04:10:01;;;;13.90
70969;BMP280;58630;43.022;25.100;2023-03-24T04:15:02;;;;13.90
70969;BMP280;58630;43.022;25.100;2023-03-24T04:25:12;;;;13.90
70969;BMP280;58630;43.022;25.100;2023-03-24T04:27:44;;;;13.90
70969;BMP280;58630;43.022;25.100;2023-03-24T04:38:15;;;;13.80
70969;BMP280;58630;43.022;25.100;2023-03-24T04:40:42;;;;13.80
70969;BMP280;58630;43.022;25.100;2023-03-24T04:43:10;;;;13.80
70969;BMP280;58630;43.022;25.100;2023-03-24T04:45:38;;;;13.80
70969;BMP280;58630;43.022;25.100;2023-03-24T04:48:04;;;;13.80
70969;BMP280;58630;43.022;25.100;2023-03-24T04:50:31;;;;13.80
70969;BMP280;58630;43.022;25.100;2023-03-24T04:52:58;;;;13.80
70969;BMP280;58630;43.022;25.100;2023-03-24T04:57:58;;;;13.70
70969;BMP280;58630;43.022;25.100;2023-03-24T05:00:24;;;;13.80
70969;BMP280;58630;43.022;25.100;2023-03-24T05:02:50;;;;13.70
70969;BMP280;58630;43.022;25.100;2023-03-24T05:05:16;;;;13.70
70969;BMP280;58630;43.022;25.100;2023-03-24T05:07:42;;;;13.80
70969;BMP280;58630;43.022;25.100;2023-03-24T05:10:08;;;;13.80
70969;BMP280;58630;43.022;25.100;2023-03-24T05:12:34;;;;13.80
70969;BMP280;58630;43.022;25.100;2023-03-24T05:14:59;;;;13.80
70969;BMP280;58630;43.022;25.100;2023-03-24T05:17:26;;;;13.80
70969;BMP280;58630;43.022;25.100;2023-03-24T05:19:51;;;;13.80
70969;BMP280;58630;43.022;25.100;2023-03-24T05:22:17;;;;13.70
70969;BMP280;58630;43.022;25.100;2023-03-24T05:24:42;;;;13.80
70969;BMP280;58630;43.022;25.100;2023-03-24T05:27:08;;;;13.80
70969;BMP280;58630;43.022;25.100;2023-03-24T05:29:33;;;;13.80
70969;BMP280;58630;43.022;25.100;2023-03-24T05:31:59;;;;13.80
70969;BMP280;58630;43.022;25.100;2023-03-24T05:34:25;;;;13.80
70969;BMP280;58630;43.022;25.100;2023-03-24T05:36:50;;;;13.80
70969;BMP280;58630;43.022;25.100;2023-03-24T05:39:16;;;;13.80
70969;BMP280;58630;43.022;25.100;2023-03-24T05:41:42;;;;13.80
70969;BMP280;58630;43.022;25.100;2023-03-24T05:44:07;;;;13.80
70969;BMP280;58630;43.022;25.100;2023-03-24T05:46:33;;;;13.80
70969;BMP280;58630;43.022;25.100;2023-03-24T05:48:58;;;;13.80
70969;BMP280;58630;43.022;25.100;2023-03-24T05:51:24;;;;13.80
70969;BMP280;58630;43.022;25.100;2023-03-24T05:53:50;;;;13.80
70969;BMP280;58630;43.022;25.100;2023-03-24T05:56:16;;;;13.80
70969;BMP280;58630;43.022;25.100;2023-03-24T05:58:42;;;;13.80
70969;BMP280;58630;43.022;25.100;2023-03-24T06:01:09;;;;13.80
70969;BMP280;58630;43.022;25.100;2023-03-24T06:03:35;;;;13.80
70969;BMP280;58630;43.022;25.100;2023-03-24T06:06:04;;;;13.80
70969;BMP280;58630;43.022;25.100;2023-03-24T06:08:30;;;;13.80
70969;BMP280;58630;43.022;25.100;2023-03-24T06:10:58;;;;13.80
70969;BMP280;58630;43.022;25.100;2023-03-24T06:13:27;;;;13.90
70969;BMP280;58630;43.022;25.100;2023-03-24T06:15:52;;;;13.90
70969;BMP280;58630;43.022;25.100;2023-03-24T06:18:19;;;;13.80
70969;BMP280;58630;43.022;25.100;2023-03-24T06:20:45;;;;13.90
70969;BMP280;58630;43.022;25.100;2023-03-24T06:23:15;;;;13.80
70969;BMP280;58630;43.022;25.100;2023-03-24T06:25:41;;;;13.90
70969;BMP280;58630;43.022;25.100;2023-03-24T06:28:09;;;;13.90
70969;BMP280;58630;43.022;25.100;2023-03-24T06:30:42;;;;13.90
70969;BMP280;58630;43.022;25.100;2023-03-24T06:33:08;;;;13.90
70969;BMP280;58630;43.022;25.100;2023-03-24T06:35:35;;;;13.90
70969;BMP280;58630;43.022;25.100;2023-03-24T06:38:01;;;;13.90
70969;BMP280;58630;43.022;25.100;2023-03-24T06:40:26;;;;13.90
70969;BMP280;58630;43.022;25.100;2023-03-24T06:42:52;;;;13.90
70969;BMP280;58630;43.022;25.100;2023-03-24T06:45:18;;;;13.90
70969;BMP280;58630;43.022;25.100;2023-03-24T06:47:43;;;;13.90
70969;BMP280;58630;43.022;25.100;2023-03-24T06:50:09;;;;13.90
70969;BMP280;58630;43.022;25.100;2023-03-24T06:52:35;;;;13.90
70969;BMP280;58630;43.022;25.100;2023-03-24T06:55:01;;;;13.90
70969;BMP280;58630;43.022;25.100;2023-03-24T06:57:26;;;;13.90
70969;BMP280;58630;43.022;25.100;2023-03-24T06:59:53;;;;14.00
70969;BMP280;58630;43.022;25.100;2023-03-24T07:02:19;;;;14.00
70969;BMP280;58630;43.022;25.100;2023-03-24T07:04:44;;;;13.90
70969;BMP280;58630;43.022;25.100;2023-03-24T07:07:10;;;;13.90
70969;BMP280;58630;43.022;25.100;2023-03-24T07:09:37;;;;13.90
70969;BMP280;58630;43.022;25.100;2023-03-24T07:12:03;;;;13.90
70969;BMP280;58630;43.022;25.100;2023-03-24T07:14:29;;;;13.90
70969;BMP280;58630;43.022;25.100;2023-03-24T07:16:55;;;;13.90
70969;BMP280;58630;43.022;25.100;2023-03-24T07:19:21;;;;13.90
70969;BMP280;58630;43.022;25.100;2023-03-24T07:21:47;;;;13.90
70969;BMP280;58630;43.022;25.100;2023-03-24T07:24:17;;;;13.90
70969;BMP280;58630;43.022;25.100;2023-03-24T07:26:43;;;;14.00
70969;BMP280;58630;43.022;25.100;2023-03-24T07:29:08;;;;14.00
70969;BMP280;58630;43.022;25.100;2023-03-24T07:31:34;;;;14.00
70969;BMP280;58630;43.022;25.100;2023-03-24T07:34:03;;;;14.00
70969;BMP280;58630;43.022;25.100;2023-03-24T07:36:29;;;;14.10
70969;BMP280;58630;43.022;25.100;2023-03-24T07:38:54;;;;14.10
70969;BMP280;58630;43.022;25.100;2023-03-24T07:41:21;;;;14.10
70969;BMP280;58630;43.022;25.100;2023-03-24T07:43:46;;;;14.20
70969;BMP280;58630;43.022;25.100;2023-03-24T07:46:12;;;;14.20
70969;BMP280;58630;43.022;25.100;2023-03-24T07:48:37;;;;14.20
70969;BMP280;58630;43.022;25.100;2023-03-24T07:51:03;;;;14.20
70969;BMP280;58630;43.022;25.100;2023-03-24T07:53:28;;;;14.30
70969;BMP280;58630;43.022;25.100;2023-03-24T07:55:54;;;;14.30
70969;BMP280;58630;43.022;25.100;2023-03-24T07:58:20;;;;14.30
70969;BMP280;58630;43.022;25.100;2023-03-24T08:00:46;;;;14.30
70969;BMP280;58630;43.022;25.100;2023-03-24T08:03:12;;;;14.30
70969;BMP280;58630;43.022;25.100;2023-03-24T08:05:38;;;;14.30
70969;BMP280;58630;43.022;25.100;2023-03-24T08:08:04;;;;14.30
70969;BMP280;58630;43.022;25.100;2023-03-24T08:10:31;;;;14.30
70969;BMP280;58630;43.022;25.100;2023-03-24T08:12:57;;;;14.30
70969;BMP280;58630;43.022;25.100;2023-03-24T08:15:22;;;;14.30
70969;BMP280;58630;43.022;25.100;2023-03-24T08:17:48;;;;14.40
70969;BMP280;58630;43.022;25.100;2023-03-24T08:20:14;;;;14.40
70969;BMP280;58630;43.022;25.100;2023-03-24T08:22:41;;;;14.40
70969;BMP280;58630;43.022;25.100;2023-03-24T08:25:08;;;;14.40
70969;BMP280;58630;43.022;25.100;2023-03-24T08:27:34;;;;14.50
70969;BMP280;58630;43.022;25.100;2023-03-24T08:30:03;;;;14.50
70969;BMP280;58630;43.022;25.100;2023-03-24T08:32:29;;;;14.50
70969;BMP280;58630;43.022;25.100;2023-03-24T08:34:56;;;;14.50
70969;BMP280;58630;43.022;25.100;2023-03-24T08:37:21;;;;14.50
70969;BMP280;58630;43.022;25.100;2023-03-24T08:39:47;;;;14.50
70969;BMP280;58630;43.022;25.100;2023-03-24T08:42:12;;;;14.50
70969;BMP280;58630;43.022;25.100;2023-03-24T08:44:38;;;;14.50
70969;BMP280;58630;43.022;25.100;2023-03-24T08:47:03;;;;14.50
70969;BMP280;58630;43.022;25.100;2023-03-24T08:49:29;;;;14.60
70969;BMP280;58630;43.022;25.100;2023-03-24T08:51:54;;;;14.60
70969;BMP280;58630;43.022;25.100;2023-03-24T08:54:20;;;;14.50
70969;BMP280;58630;43.022;25.100;2023-03-24T08:56:48;;;;14.60
70969;BMP280;58630;43.022;25.100;2023-03-24T08:59:13;;;;14.60
70969;BMP280;58630;43.022;25.100;2023-03-24T09:01:39;;;;14.60
70969;BMP280;58630;43.022;25.100;2023-03-24T09:04:05;;;;14.60
70969;BMP280;58630;43.022;25.100;2023-03-24T09:06:30;;;;14.60
70969;BMP280;58630;43.022;25.100;2023-03-24T09:08:57;;;;14.60
70969;BMP280;58630;43.022;25.100;2023-03-24T09:11:22;;;;14.60
70969;BMP280;58630;43.022;25.100;2023-03-24T09:13:48;;;;14.60
70969;BMP280;58630;43.022;25.100;2023-03-24T09:16:14;;;;14.60
70969;BMP280;58630;43.022;25.100;2023-03-24T09:18:41;;;;14.70
70969;BMP280;58630;43.022;25.100;2023-03-24T09:21:06;;;;14.60
70969;BMP280;58630;43.022;25.100;2023-03-24T09:23:33;;;;14.60
70969;BMP280;58630;43.022;25.100;2023-03-24T09:25:58;;;;14.60
70969;BMP280;58630;43.022;25.100;2023-03-24T09:28:24;;;;14.60
70969;BMP280;58630;43.022;25.100;2023-03-24T09:30:50;;;;14.70
70969;BMP280;58630;43.022;25.100;2023-03-24T09:33:20;;;;14.70
70969;BMP280;58630;43.022;25.100;2023-03-24T09:35:51;;;;14.70
70969;BMP280;58630;43.022;25.100;2023-03-24T09:38:17;;;;14.60
70969;BMP280;58630;43.022;25.100;2023-03-24T09:40:43;;;;14.70
70969;BMP280;58630;43.022;25.100;2023-03-24T09:43:23;;;;14.70
70969;BMP280;58630;43.022;25.100;2023-03-24T09:45:52;;;;14.70
70969;BMP280;58630;43.022;25.100;2023-03-24T09:48:20;;;;14.70
70969;BMP280;58630;43.022;25.100;2023-03-24T09:56:13;;;;14.70
70969;BMP280;58630;43.022;25.100;2023-03-24T09:58:41;;;;14.70
70969;BMP280;58630;43.022;25.100;2023-03-24T10:01:13;;;;14.70
70969;BMP280;58630;43.022;25.100;2023-03-24T10:03:43;;;;14.80
70969;BMP280;58630;43.022;25.100;2023-03-24T10:06:25;;;;14.80
70969;BMP280;58630;43.022;25.100;2023-03-24T10:14:26;;;;14.80
70969;BMP280;58630;43.022;25.100;2023-03-24T10:24:50;;;;14.80
70969;BMP280;58630;43.022;25.100;2023-03-24T10:27:24;;;;14.90
70969;BMP280;58630;43.022;25.100;2023-03-24T10:29:53;;;;14.90
70969;BMP280;58630;43.022;25.100;2023-03-24T10:32:20;;;;14.90
70969;BMP280;58630;43.022;25.100;2023-03-24T10:34:49;;;;14.90
70969;BMP280;58630;43.022;25.100;2023-03-24T10:37:15;;;;14.90
70969;BMP280;58630;43.022;25.100;2023-03-24T10:39:41;;;;14.90
70969;BMP280;58630;43.022;25.100;2023-03-24T10:42:10;;;;14.90
70969;BMP280;58630;43.022;25.100;2023-03-24T10:44:37;;;;15.00
70969;BMP280;58630;43.022;25.100;2023-03-24T10:47:04;;;;15.00
70969;BMP280;58630;43.022;25.100;2023-03-24T10:49:32;;;;15.00
70969;BMP280;58630;43.022;25.100;2023-03-24T10:51:59;;;;15.00
70969;BMP280;58630;43.022;25.100;2023-03-24T10:54:28;;;;15.00
70969;BMP280;58630;43.022;25.100;2023-03-24T10:59:26;;;;15.10
70969;BMP280;58630;43.022;25.100;2023-03-24T11:04:24;;;;15.10
70969;BMP280;58630;43.022;25.100;2023-03-24T11:06:52;;;;15.10
70969;BMP280;58630;43.022;25.100;2023-03-24T11:09:19;;;;15.10
70969;BMP280;58630;43.022;25.100;2023-03-24T11:11:45;;;;15.10
70969;BMP280;58630;43.022;25.100;2023-03-24T11:14:18;;;;15.20
70969;BMP280;58630;43.022;25.100;2023-03-24T11:16:46;;;;15.20
70969;BMP280;58630;43.022;25.100;2023-03-24T11:21:44;;;;15.30
70969;BMP280;58630;43.022;25.100;2023-03-24T11:24:14;;;;15.40
70969;BMP280;58630;43.022;25.100;2023-03-24T11:26:43;;;;15.40
70969;BMP280;58630;43.022;25.100;2023-03-24T11:29:12;;;;15.40
70969;BMP280;58630;43.022;25.100;2023-03-24T11:31:39;;;;15.50
70969;BMP280;58630;43.022;25.100;2023-03-24T11:34:09;;;;15.60
70969;BMP280;58630;43.022;25.100;2023-03-24T11:39:22;;;;15.80
70969;BMP280;58630;43.022;25.100;2023-03-24T11:42:02;;;;15.90
70969;BMP280;58630;43.022;25.100;2023-03-24T11:46:57;;;;16.10
70969;BMP280;58630;43.022;25.100;2023-03-24T11:49:25;;;;16.20
70969;BMP280;58630;43.022;25.100;2023-03-24T11:51:52;;;;16.40
70969;BMP280;58630;43.022;25.100;2023-03-24T11:54:19;;;;17.10
70969;BMP280;58630;43.022;25.100;2023-03-24T11:56:47;;;;17.30
70969;BMP280;58630;43.022;25.100;2023-03-24T12:02:00;;;;17.10
70969;BMP280;58630;43.022;25.100;2023-03-24T12:17:16;;;;18.10
70969;BMP280;58630;43.022;25.100;2023-03-24T12:27:18;;;;19.50
70969;BMP280;58630;43.022;25.100;2023-03-24T12:35:19;;;;21.00
70969;BMP280;58630;43.022;25.100;2023-03-24T12:42:38;;;;21.10
70969;BMP280;58630;43.022;25.100;2023-03-24T12:50:44;;;;21.70
70969;BMP280;58630;43.022;25.100;2023-03-24T12:56:08;;;;21.90
70969;BMP280;58630;43.022;25.100;2023-03-24T12:58:48;;;;22.10
70969;BMP280;58630;43.022;25.100;2023-03-24T13:03:42;;;;22.40
70969;BMP280;58630;43.022;25.100;2023-03-24T13:06:23;;;;22.50
70969;BMP280;58630;43.022;25.100;2023-03-24T13:09:01;;;;22.60
70969;BMP280;58630;43.022;25.100;2023-03-24T13:11:30;;;;22.60
70969;BMP280;58630;43.022;25.100;2023-03-24T13:14:00;;;;22.80
70969;BMP280;58630;43.022;25.100;2023-03-24T13:16:27;;;;23.00
70969;BMP280;58630;43.022;25.100;2023-03-24T13:18:55;;;;23.20
70969;BMP280;58630;43.022;25.100;2023-03-24T13:21:24;;;;23.40
70969;BMP280;58630;43.022;25.100;2023-03-24T13:23:55;;;;23.50
70969;BMP280;58630;43.022;25.100;2023-03-24T13:34:25;;;;23.90
70969;BMP280;58630;43.022;25.100;2023-03-24T13:36:54;;;;24.00
70969;BMP280;58630;43.022;25.100;2023-03-24T13:39:21;;;;24.10
70969;BMP280;58630;43.022;25.100;2023-03-24T13:41:49;;;;24.20
70969;BMP280;58630;43.022;25.100;2023-03-24T13:46:43;;;;24.30
70969;BMP280;58630;43.022;25.100;2023-03-24T13:49:23;;;;24.30
70969;BMP280;58630;43.022;25.100;2023-03-24T13:51:49;;;;24.30
70969;BMP280;58630;43.022;25.100;2023-03-24T13:54:16;;;;24.30
70969;BMP280;58630;43.022;25.100;2023-03-24T13:59:22;;;;24.40
